sensor_id;sensor_type;location;lat;lon;timestamp;temperature;humidity
20698;DHT22;10508;50.956;4.640;2022-12-17T00:01:14;-3.30;99.90
20698;DHT22;10508;50.956;4.640;2022-12-17T00:03:59;-3.20;99.90
20698;DHT22;10508;50.956;4.640;2022-12-17T00:06:43;-3.30;99.90
20698;DHT22;10508;50.956;4.640;2022-12-17T00:09:27;-3.40;99.90
20698;DHT22;10508;50.956;4.640;2022-12-17T00:12:12;-3.70;99.90
20698;DHT22;10508;50.956;4.640;2022-12-17T00:14:56;-3.90;99.90
20698;DHT22;10508;50.956;4.640;2022-12-17T00:17:40;-4.10;99.90
20698;DHT22;10508;50.956;4.640;2022-12-17T00:20:25;-3.90;99.90
20698;DHT22;10508;50.956;4.640;2022-12-17T00:23:09;-4.00;99.90
20698;DHT22;10508;50.956;4.640;2022-12-17T00:25:54;-4.00;99.90
20698;DHT22;10508;50.956;4.640;2022-12-17T00:28:39;-4.10;99.90
20698;DHT22;10508;50.956;4.640;2022-12-17T00:31:27;-3.80;99.90
20698;DHT22;10508;50.956;4.640;2022-12-17T00:34:12;-3.70;99.90
20698;DHT22;10508;50.956;4.640;2022-12-17T00:36:56;-3.70;99.90
20698;DHT22;10508;50.956;4.640;2022-12-17T00:39:41;-3.70;99.90
20698;DHT22;10508;50.956;4.640;2022-12-17T00:42:25;-3.60;99.90
20698;DHT22;10508;50.956;4.640;2022-12-17T00:45:09;-3.50;99.90
20698;DHT22;10508;50.956;4.640;2022-12-17T00:47:53;-3.60;99.90
20698;DHT22;10508;50.956;4.640;2022-12-17T00:50:38;-3.80;99.90
20698;DHT22;10508;50.956;4.640;2022-12-17T00:53:22;-3.90;99.90
20698;DHT22;10508;50.956;4.640;2022-12-17T00:56:07;-4.00;99.90
20698;DHT22;10508;50.956;4.640;2022-12-17T00:58:52;-4.20;99.90
20698;DHT22;10508;50.956;4.640;2022-12-17T01:01:36;-4.30;99.90
20698;DHT22;10508;50.956;4.640;2022-12-17T01:04:22;-4.30;99.90
20698;DHT22;10508;50.956;4.640;2022-12-17T01:07:06;-4.40;99.90
20698;DHT22;10508;50.956;4.640;2022-12-17T01:09:50;-4.40;99.90
20698;DHT22;10508;50.956;4.640;2022-12-17T01:12:35;-4.50;99.90
20698;DHT22;10508;50.956;4.640;2022-12-17T01:15:19;-4.50;99.90
20698;DHT22;10508;50.956;4.640;2022-12-17T01:18:03;-4.40;99.90
20698;DHT22;10508;50.956;4.640;2022-12-17T01:20:54;-4.40;99.90
20698;DHT22;10508;50.956;4.640;2022-12-17T01:23:38;-4.50;99.90
20698;DHT22;10508;50.956;4.640;2022-12-17T01:26:23;-4.50;99.90
20698;DHT22;10508;50.956;4.640;2022-12-17T01:29:07;-4.50;99.90
20698;DHT22;10508;50.956;4.640;2022-12-17T01:31:51;-4.60;99.90
20698;DHT22;10508;50.956;4.640;2022-12-17T01:34:35;-4.60;99.90
20698;DHT22;10508;50.956;4.640;2022-12-17T01:37:20;-4.70;99.90
20698;DHT22;10508;50.956;4.640;2022-12-17T01:40:05;-4.70;99.90
20698;DHT22;10508;50.956;4.640;2022-12-17T01:42:49;-4.70;99.90
20698;DHT22;10508;50.956;4.640;2022-12-17T01:45:51;-4.60;99.90
20698;DHT22;10508;50.956;4.640;2022-12-17T01:48:41;-4.40;99.90
20698;DHT22;10508;50.956;4.640;2022-12-17T01:51:27;-4.10;99.90
20698;DHT22;10508;50.956;4.640;2022-12-17T01:54:12;-3.90;99.90
20698;DHT22;10508;50.956;4.640;2022-12-17T01:56:58;-4.00;99.90
20698;DHT22;10508;50.956;4.640;2022-12-17T01:59:50;-3.90;99.90
20698;DHT22;10508;50.956;4.640;2022-12-17T02:02:35;-4.00;99.90
20698;DHT22;10508;50.956;4.640;2022-12-17T02:05:24;-4.20;99.90
20698;DHT22;10508;50.956;4.640;2022-12-17T02:11:43;-4.10;99.90
20698;DHT22;10508;50.956;4.640;2022-12-17T02:17:24;-4.50;99.90
20698;DHT22;10508;50.956;4.640;2022-12-17T02:20:22;-4.30;99.90
20698;DHT22;10508;50.956;4.640;2022-12-17T02:26:47;-4.10;99.90
20698;DHT22;10508;50.956;4.640;2022-12-17T02:29:42;-4.20;99.90
20698;DHT22;10508;50.956;4.640;2022-12-17T02:32:27;-4.60;99.90
20698;DHT22;10508;50.956;4.640;2022-12-17T02:35:18;-4.60;99.90
20698;DHT22;10508;50.956;4.640;2022-12-17T02:38:26;-4.60;99.90
20698;DHT22;10508;50.956;4.640;2022-12-17T02:41:35;-4.90;99.90
20698;DHT22;10508;50.956;4.640;2022-12-17T02:44:20;-5.00;99.90
20698;DHT22;10508;50.956;4.640;2022-12-17T02:47:07;-5.00;99.90
20698;DHT22;10508;50.956;4.640;2022-12-17T02:49:52;-4.90;99.90
20698;DHT22;10508;50.956;4.640;2022-12-17T02:52:39;-4.80;99.90
20698;DHT22;10508;50.956;4.640;2022-12-17T02:55:24;-4.80;99.90
20698;DHT22;10508;50.956;4.640;2022-12-17T02:58:08;-5.00;99.90
20698;DHT22;10508;50.956;4.640;2022-12-17T03:00:53;-5.00;99.90
20698;DHT22;10508;50.956;4.640;2022-12-17T03:03:37;-5.00;99.90
20698;DHT22;10508;50.956;4.640;2022-12-17T03:06:22;-5.00;99.90
20698;DHT22;10508;50.956;4.640;2022-12-17T03:09:06;-5.00;99.90
20698;DHT22;10508;50.956;4.640;2022-12-17T03:11:50;-5.00;99.90
20698;DHT22;10508;50.956;4.640;2022-12-17T03:14:34;-5.00;99.90
20698;DHT22;10508;50.956;4.640;2022-12-17T03:17:18;-5.00;99.90
20698;DHT22;10508;50.956;4.640;2022-12-17T03:20:03;-4.80;99.90
20698;DHT22;10508;50.956;4.640;2022-12-17T03:22:48;-4.70;99.90
20698;DHT22;10508;50.956;4.640;2022-12-17T03:25:32;-4.70;99.90
20698;DHT22;10508;50.956;4.640;2022-12-17T03:28:16;-4.70;99.90
20698;DHT22;10508;50.956;4.640;2022-12-17T03:31:01;-4.90;99.90
20698;DHT22;10508;50.956;4.640;2022-12-17T03:33:45;-5.10;99.90
20698;DHT22;10508;50.956;4.640;2022-12-17T03:36:30;-5.00;99.90
20698;DHT22;10508;50.956;4.640;2022-12-17T03:39:15;-4.80;99.90
20698;DHT22;10508;50.956;4.640;2022-12-17T03:41:59;-4.60;99.90
20698;DHT22;10508;50.956;4.640;2022-12-17T03:44:43;-4.70;99.90
20698;DHT22;10508;50.956;4.640;2022-12-17T03:47:29;-5.00;99.90
20698;DHT22;10508;50.956;4.640;2022-12-17T03:50:14;-5.10;99.90
20698;DHT22;10508;50.956;4.640;2022-12-17T03:53:02;-5.20;99.90
20698;DHT22;10508;50.956;4.640;2022-12-17T03:55:46;-5.20;99.90
20698;DHT22;10508;50.956;4.640;2022-12-17T03:58:30;-5.30;99.90
20698;DHT22;10508;50.956;4.640;2022-12-17T04:01:15;-5.40;99.90
20698;DHT22;10508;50.956;4.640;2022-12-17T04:03:59;-5.40;99.90
20698;DHT22;10508;50.956;4.640;2022-12-17T04:06:43;-5.40;99.90
20698;DHT22;10508;50.956;4.640;2022-12-17T04:09:47;-5.40;99.90
20698;DHT22;10508;50.956;4.640;2022-12-17T04:12:32;-5.20;99.90
20698;DHT22;10508;50.956;4.640;2022-12-17T04:15:16;-5.30;99.90
20698;DHT22;10508;50.956;4.640;2022-12-17T04:18:00;-5.30;99.90
20698;DHT22;10508;50.956;4.640;2022-12-17T04:20:44;-5.30;99.90
20698;DHT22;10508;50.956;4.640;2022-12-17T04:23:28;-5.10;99.90
20698;DHT22;10508;50.956;4.640;2022-12-17T04:26:13;-5.00;99.90
20698;DHT22;10508;50.956;4.640;2022-12-17T04:28:57;-5.10;99.90
20698;DHT22;10508;50.956;4.640;2022-12-17T04:31:42;-5.30;99.90
20698;DHT22;10508;50.956;4.640;2022-12-17T04:34:26;-5.20;99.90
20698;DHT22;10508;50.956;4.640;2022-12-17T04:37:10;-5.10;99.90
20698;DHT22;10508;50.956;4.640;2022-12-17T04:39:55;-5.00;99.90
20698;DHT22;10508;50.956;4.640;2022-12-17T04:42:39;-4.90;99.90
20698;DHT22;10508;50.956;4.640;2022-12-17T04:45:23;-5.20;99.90
20698;DHT22;10508;50.956;4.640;2022-12-17T04:48:08;-5.40;99.90
20698;DHT22;10508;50.956;4.640;2022-12-17T04:50:52;-5.50;99.90
20698;DHT22;10508;50.956;4.640;2022-12-17T04:53:37;-5.50;99.90
20698;DHT22;10508;50.956;4.640;2022-12-17T04:56:21;-5.30;99.90
20698;DHT22;10508;50.956;4.640;2022-12-17T04:59:05;-5.20;99.90
20698;DHT22;10508;50.956;4.640;2022-12-17T05:01:50;-5.20;99.90
20698;DHT22;10508;50.956;4.640;2022-12-17T05:04:34;-5.40;99.90
20698;DHT22;10508;50.956;4.640;2022-12-17T05:07:19;-5.60;99.90
20698;DHT22;10508;50.956;4.640;2022-12-17T05:10:04;-5.70;99.90
20698;DHT22;10508;50.956;4.640;2022-12-17T05:12:58;-5.70;99.90
20698;DHT22;10508;50.956;4.640;2022-12-17T05:15:42;-5.70;99.90
20698;DHT22;10508;50.956;4.640;2022-12-17T05:18:27;-5.50;99.90
20698;DHT22;10508;50.956;4.640;2022-12-17T05:21:11;-5.20;99.90
20698;DHT22;10508;50.956;4.640;2022-12-17T05:23:55;-5.10;99.90
20698;DHT22;10508;50.956;4.640;2022-12-17T05:26:40;-5.10;99.90
20698;DHT22;10508;50.956;4.640;2022-12-17T05:29:24;-5.40;99.90
20698;DHT22;10508;50.956;4.640;2022-12-17T05:32:08;-5.60;99.90
20698;DHT22;10508;50.956;4.640;2022-12-17T05:34:53;-5.60;99.90
20698;DHT22;10508;50.956;4.640;2022-12-17T05:37:37;-5.40;99.90
20698;DHT22;10508;50.956;4.640;2022-12-17T05:40:21;-5.20;99.90
20698;DHT22;10508;50.956;4.640;2022-12-17T05:43:09;-5.20;99.90
20698;DHT22;10508;50.956;4.640;2022-12-17T05:45:54;-5.30;99.90
20698;DHT22;10508;50.956;4.640;2022-12-17T05:48:38;-5.50;99.90
20698;DHT22;10508;50.956;4.640;2022-12-17T05:51:23;-5.60;99.90
20698;DHT22;10508;50.956;4.640;2022-12-17T05:54:07;-5.60;99.90
20698;DHT22;10508;50.956;4.640;2022-12-17T05:56:52;-5.80;99.90
20698;DHT22;10508;50.956;4.640;2022-12-17T05:59:37;-5.70;99.90
20698;DHT22;10508;50.956;4.640;2022-12-17T06:02:21;-5.80;99.90
20698;DHT22;10508;50.956;4.640;2022-12-17T06:05:06;-5.70;99.90
20698;DHT22;10508;50.956;4.640;2022-12-17T06:07:50;-5.40;99.90
20698;DHT22;10508;50.956;4.640;2022-12-17T06:10:35;-5.50;99.90
20698;DHT22;10508;50.956;4.640;2022-12-17T06:13:19;-5.60;99.90
20698;DHT22;10508;50.956;4.640;2022-12-17T06:16:04;-5.80;99.90
20698;DHT22;10508;50.956;4.640;2022-12-17T06:18:48;-5.90;99.90
20698;DHT22;10508;50.956;4.640;2022-12-17T06:21:32;-5.90;99.90
20698;DHT22;10508;50.956;4.640;2022-12-17T06:24:17;-5.90;99.90
20698;DHT22;10508;50.956;4.640;2022-12-17T06:27:01;-5.90;99.90
20698;DHT22;10508;50.956;4.640;2022-12-17T06:29:45;-5.90;99.90
20698;DHT22;10508;50.956;4.640;2022-12-17T06:32:30;-5.70;99.90
20698;DHT22;10508;50.956;4.640;2022-12-17T06:35:14;-5.70;99.90
20698;DHT22;10508;50.956;4.640;2022-12-17T06:38:03;-5.70;99.90
20698;DHT22;10508;50.956;4.640;2022-12-17T06:40:48;-5.80;99.90
20698;DHT22;10508;50.956;4.640;2022-12-17T06:43:32;-5.90;99.90
20698;DHT22;10508;50.956;4.640;2022-12-17T06:46:16;-6.00;99.90
20698;DHT22;10508;50.956;4.640;2022-12-17T06:49:01;-6.10;99.90
20698;DHT22;10508;50.956;4.640;2022-12-17T06:51:45;-6.10;99.90
20698;DHT22;10508;50.956;4.640;2022-12-17T06:54:30;-6.10;99.90
20698;DHT22;10508;50.956;4.640;2022-12-17T06:57:14;-6.10;99.90
20698;DHT22;10508;50.956;4.640;2022-12-17T06:59:58;-6.00;99.90
20698;DHT22;10508;50.956;4.640;2022-12-17T07:02:43;-5.80;99.90
20698;DHT22;10508;50.956;4.640;2022-12-17T07:05:27;-6.00;99.90
20698;DHT22;10508;50.956;4.640;2022-12-17T07:08:12;-5.90;99.90
20698;DHT22;10508;50.956;4.640;2022-12-17T07:11:00;-5.70;99.90
20698;DHT22;10508;50.956;4.640;2022-12-17T07:13:44;-5.70;99.90
20698;DHT22;10508;50.956;4.640;2022-12-17T07:16:28;-5.80;99.90
20698;DHT22;10508;50.956;4.640;2022-12-17T07:19:13;-5.80;99.90
20698;DHT22;10508;50.956;4.640;2022-12-17T07:21:57;-5.80;99.90
20698;DHT22;10508;50.956;4.640;2022-12-17T07:24:41;-5.80;99.90
20698;DHT22;10508;50.956;4.640;2022-12-17T07:27:26;-5.80;99.90
20698;DHT22;10508;50.956;4.640;2022-12-17T07:30:11;-5.90;99.90
20698;DHT22;10508;50.956;4.640;2022-12-17T07:33:04;-5.80;99.90
20698;DHT22;10508;50.956;4.640;2022-12-17T07:35:50;-5.80;99.90
20698;DHT22;10508;50.956;4.640;2022-12-17T07:38:35;-5.70;99.90
20698;DHT22;10508;50.956;4.640;2022-12-17T07:41:19;-5.70;99.90
20698;DHT22;10508;50.956;4.640;2022-12-17T07:44:04;-5.60;99.90
20698;DHT22;10508;50.956;4.640;2022-12-17T07:46:48;-5.50;99.90
20698;DHT22;10508;50.956;4.640;2022-12-17T07:49:32;-5.60;99.90
20698;DHT22;10508;50.956;4.640;2022-12-17T07:52:16;-5.70;99.90
20698;DHT22;10508;50.956;4.640;2022-12-17T07:55:01;-5.40;99.90
20698;DHT22;10508;50.956;4.640;2022-12-17T07:57:45;-5.10;99.90
20698;DHT22;10508;50.956;4.640;2022-12-17T08:00:30;-4.90;99.90
20698;DHT22;10508;50.956;4.640;2022-12-17T08:03:14;-4.70;99.90
20698;DHT22;10508;50.956;4.640;2022-12-17T08:05:58;-4.60;99.90
20698;DHT22;10508;50.956;4.640;2022-12-17T08:08:43;-4.50;99.90
20698;DHT22;10508;50.956;4.640;2022-12-17T08:11:28;-4.40;99.90
20698;DHT22;10508;50.956;4.640;2022-12-17T08:14:12;-4.30;99.90
20698;DHT22;10508;50.956;4.640;2022-12-17T08:16:56;-4.20;99.90
20698;DHT22;10508;50.956;4.640;2022-12-17T08:19:41;-4.20;99.90
20698;DHT22;10508;50.956;4.640;2022-12-17T08:22:25;-4.30;99.90
20698;DHT22;10508;50.956;4.640;2022-12-17T08:25:09;-4.20;99.90
20698;DHT22;10508;50.956;4.640;2022-12-17T08:27:58;-4.20;99.90
20698;DHT22;10508;50.956;4.640;2022-12-17T08:30:46;-4.20;99.90
20698;DHT22;10508;50.956;4.640;2022-12-17T08:33:31;-4.20;99.90
20698;DHT22;10508;50.956;4.640;2022-12-17T08:36:15;-4.10;99.90
20698;DHT22;10508;50.956;4.640;2022-12-17T08:38:59;-4.10;99.90
20698;DHT22;10508;50.956;4.640;2022-12-17T08:41:44;-4.00;99.90
20698;DHT22;10508;50.956;4.640;2022-12-17T08:44:28;-4.00;99.90
20698;DHT22;10508;50.956;4.640;2022-12-17T08:47:12;-4.00;99.90
20698;DHT22;10508;50.956;4.640;2022-12-17T08:49:57;-4.00;99.90
20698;DHT22;10508;50.956;4.640;2022-12-17T08:53:01;-4.00;99.90
20698;DHT22;10508;50.956;4.640;2022-12-17T08:55:46;-4.00;99.90
20698;DHT22;10508;50.956;4.640;2022-12-17T08:58:30;-3.90;99.90
20698;DHT22;10508;50.956;4.640;2022-12-17T09:01:14;-3.90;99.90
20698;DHT22;10508;50.956;4.640;2022-12-17T09:03:58;-3.90;99.90
20698;DHT22;10508;50.956;4.640;2022-12-17T09:06:43;-3.90;99.90
20698;DHT22;10508;50.956;4.640;2022-12-17T09:09:36;-3.80;99.90
20698;DHT22;10508;50.956;4.640;2022-12-17T09:12:21;-3.70;99.90
20698;DHT22;10508;50.956;4.640;2022-12-17T09:15:05;-3.70;99.90
20698;DHT22;10508;50.956;4.640;2022-12-17T09:17:50;-3.60;99.90
20698;DHT22;10508;50.956;4.640;2022-12-17T09:20:34;-3.60;99.90
20698;DHT22;10508;50.956;4.640;2022-12-17T09:23:19;-3.60;99.90
20698;DHT22;10508;50.956;4.640;2022-12-17T09:26:03;-3.70;99.90
20698;DHT22;10508;50.956;4.640;2022-12-17T09:28:47;-3.70;99.90
20698;DHT22;10508;50.956;4.640;2022-12-17T09:31:32;-3.70;99.90
20698;DHT22;10508;50.956;4.640;2022-12-17T09:34:33;-3.70;99.90
20698;DHT22;10508;50.956;4.640;2022-12-17T09:37:17;-3.60;99.90
20698;DHT22;10508;50.956;4.640;2022-12-17T09:40:02;-3.60;99.90
20698;DHT22;10508;50.956;4.640;2022-12-17T09:43:00;-3.50;99.90
20698;DHT22;10508;50.956;4.640;2022-12-17T09:45:56;-3.50;99.90
20698;DHT22;10508;50.956;4.640;2022-12-17T09:48:51;-3.50;99.90
20698;DHT22;10508;50.956;4.640;2022-12-17T09:51:38;-3.50;99.90
20698;DHT22;10508;50.956;4.640;2022-12-17T09:54:30;-3.50;99.90
20698;DHT22;10508;50.956;4.640;2022-12-17T09:57:19;-3.50;99.90
20698;DHT22;10508;50.956;4.640;2022-12-17T10:00:23;-3.70;99.90
20698;DHT22;10508;50.956;4.640;2022-12-17T10:03:16;-3.50;99.90
20698;DHT22;10508;50.956;4.640;2022-12-17T10:06:08;-3.50;99.90
20698;DHT22;10508;50.956;4.640;2022-12-17T10:08:59;-3.50;99.90
20698;DHT22;10508;50.956;4.640;2022-12-17T10:11:44;-3.40;99.90
20698;DHT22;10508;50.956;4.640;2022-12-17T10:14:28;-3.30;99.90
20698;DHT22;10508;50.956;4.640;2022-12-17T10:17:21;-3.20;99.90
20698;DHT22;10508;50.956;4.640;2022-12-17T10:20:21;-3.10;99.90
20698;DHT22;10508;50.956;4.640;2022-12-17T10:23:07;-3.00;99.90
20698;DHT22;10508;50.956;4.640;2022-12-17T10:25:54;-2.90;99.90
20698;DHT22;10508;50.956;4.640;2022-12-17T10:28:39;-2.90;99.90
20698;DHT22;10508;50.956;4.640;2022-12-17T10:31:28;-2.80;99.90
20698;DHT22;10508;50.956;4.640;2022-12-17T10:34:20;-2.70;99.90
20698;DHT22;10508;50.956;4.640;2022-12-17T10:37:05;-2.60;99.90
20698;DHT22;10508;50.956;4.640;2022-12-17T10:39:59;-2.60;99.90
20698;DHT22;10508;50.956;4.640;2022-12-17T10:42:45;-2.50;99.90
20698;DHT22;10508;50.956;4.640;2022-12-17T10:45:35;-2.60;99.90
20698;DHT22;10508;50.956;4.640;2022-12-17T10:48:22;-2.60;99.90
20698;DHT22;10508;50.956;4.640;2022-12-17T10:54:14;-2.70;99.90
20698;DHT22;10508;50.956;4.640;2022-12-17T10:57:01;-2.60;99.90
20698;DHT22;10508;50.956;4.640;2022-12-17T10:59:46;-2.50;99.90
20698;DHT22;10508;50.956;4.640;2022-12-17T11:02:30;-2.40;99.90
20698;DHT22;10508;50.956;4.640;2022-12-17T11:05:29;-2.30;99.90
20698;DHT22;10508;50.956;4.640;2022-12-17T11:08:17;-2.30;99.90
20698;DHT22;10508;50.956;4.640;2022-12-17T11:11:04;-2.40;99.90
20698;DHT22;10508;50.956;4.640;2022-12-17T11:13:50;-2.40;99.90
20698;DHT22;10508;50.956;4.640;2022-12-17T11:16:39;-2.30;99.90
20698;DHT22;10508;50.956;4.640;2022-12-17T11:22:43;-2.10;99.90
20698;DHT22;10508;50.956;4.640;2022-12-17T11:25:46;-1.90;99.90
20698;DHT22;10508;50.956;4.640;2022-12-17T11:28:33;-1.90;99.90
20698;DHT22;10508;50.956;4.640;2022-12-17T11:31:23;-1.90;99.90
20698;DHT22;10508;50.956;4.640;2022-12-17T11:37:19;-1.70;99.90
20698;DHT22;10508;50.956;4.640;2022-12-17T11:40:28;-1.60;99.90
20698;DHT22;10508;50.956;4.640;2022-12-17T11:46:43;-1.50;99.90
20698;DHT22;10508;50.956;4.640;2022-12-17T11:49:55;-1.40;99.90
20698;DHT22;10508;50.956;4.640;2022-12-17T11:58:58;-1.50;99.90
20698;DHT22;10508;50.956;4.640;2022-12-17T12:02:03;-1.50;99.90
20698;DHT22;10508;50.956;4.640;2022-12-17T12:07:58;-1.40;99.90
20698;DHT22;10508;50.956;4.640;2022-12-17T12:13:53;-1.30;99.90
20698;DHT22;10508;50.956;4.640;2022-12-17T12:22:40;-1.40;99.90
20698;DHT22;10508;50.956;4.640;2022-12-17T12:25:52;-1.50;99.90
20698;DHT22;10508;50.956;4.640;2022-12-17T12:28:43;-1.50;99.90
20698;DHT22;10508;50.956;4.640;2022-12-17T12:34:29;-1.30;99.90
20698;DHT22;10508;50.956;4.640;2022-12-17T12:37:16;-1.30;99.90
20698;DHT22;10508;50.956;4.640;2022-12-17T12:51:35;-1.00;99.90
20698;DHT22;10508;50.956;4.640;2022-12-17T12:54:26;-1.00;99.90
20698;DHT22;10508;50.956;4.640;2022-12-17T12:57:39;-1.00;99.90
20698;DHT22;10508;50.956;4.640;2022-12-17T13:00:36;-1.00;99.90
20698;DHT22;10508;50.956;4.640;2022-12-17T13:03:30;-1.10;99.90
20698;DHT22;10508;50.956;4.640;2022-12-17T13:19:56;-1.20;99.90
20698;DHT22;10508;50.956;4.640;2022-12-17T13:24:50;-1.30;99.90
20698;DHT22;10508;50.956;4.640;2022-12-17T13:41:27;-1.20;99.90
20698;DHT22;10508;50.956;4.640;2022-12-17T13:43:56;-1.20;99.90
20698;DHT22;10508;50.956;4.640;2022-12-17T13:48:59;-1.20;99.90
20698;DHT22;10508;50.956;4.640;2022-12-17T13:51:28;-1.20;99.90
20698;DHT22;10508;50.956;4.640;2022-12-17T13:53:59;-1.10;99.90
20698;DHT22;10508;50.956;4.640;2022-12-17T13:56:28;-1.30;99.90
20698;DHT22;10508;50.956;4.640;2022-12-17T13:58:56;-1.30;99.90
20698;DHT22;10508;50.956;4.640;2022-12-17T14:01:22;-1.20;99.90
20698;DHT22;10508;50.956;4.640;2022-12-17T14:04:36;-1.10;99.90
20698;DHT22;10508;50.956;4.640;2022-12-17T14:07:03;-1.20;99.90
20698;DHT22;10508;50.956;4.640;2022-12-17T14:09:36;-1.20;99.90
20698;DHT22;10508;50.956;4.640;2022-12-17T14:12:04;-1.20;99.90
20698;DHT22;10508;50.956;4.640;2022-12-17T14:15:03;-1.10;99.90
20698;DHT22;10508;50.956;4.640;2022-12-17T14:17:39;-1.20;99.90
20698;DHT22;10508;50.956;4.640;2022-12-17T14:20:16;-1.20;99.90
20698;DHT22;10508;50.956;4.640;2022-12-17T14:22:46;-1.20;99.90
20698;DHT22;10508;50.956;4.640;2022-12-17T14:32:59;-1.30;99.90
20698;DHT22;10508;50.956;4.640;2022-12-17T14:35:40;-1.20;99.90
20698;DHT22;10508;50.956;4.640;2022-12-17T14:38:16;-1.30;99.90
20698;DHT22;10508;50.956;4.640;2022-12-17T14:40:42;-1.20;99.90
20698;DHT22;10508;50.956;4.640;2022-12-17T14:43:08;-1.30;99.90
20698;DHT22;10508;50.956;4.640;2022-12-17T14:45:33;-1.30;99.90
20698;DHT22;10508;50.956;4.640;2022-12-17T14:48:19;-1.30;99.90
20698;DHT22;10508;50.956;4.640;2022-12-17T14:51:26;-1.40;99.90
20698;DHT22;10508;50.956;4.640;2022-12-17T14:54:03;-1.30;99.90
20698;DHT22;10508;50.956;4.640;2022-12-17T14:56:29;-1.30;99.90
20698;DHT22;10508;50.956;4.640;2022-12-17T14:58:54;-1.40;99.90
20698;DHT22;10508;50.956;4.640;2022-12-17T15:01:20;-1.30;99.90
20698;DHT22;10508;50.956;4.640;2022-12-17T15:03:46;-1.30;99.90
20698;DHT22;10508;50.956;4.640;2022-12-17T15:06:15;-1.40;99.90
20698;DHT22;10508;50.956;4.640;2022-12-17T15:08:45;-1.30;99.90
20698;DHT22;10508;50.956;4.640;2022-12-17T15:11:17;-1.20;99.90
20698;DHT22;10508;50.956;4.640;2022-12-17T15:13:43;-1.30;99.90
20698;DHT22;10508;50.956;4.640;2022-12-17T15:16:09;-1.30;99.90
20698;DHT22;10508;50.956;4.640;2022-12-17T15:18:38;-1.40;99.90
20698;DHT22;10508;50.956;4.640;2022-12-17T15:21:04;-1.40;99.90
20698;DHT22;10508;50.956;4.640;2022-12-17T15:23:30;-1.50;99.90
20698;DHT22;10508;50.956;4.640;2022-12-17T15:25:56;-1.50;99.90
20698;DHT22;10508;50.956;4.640;2022-12-17T15:28:22;-1.50;99.90
20698;DHT22;10508;50.956;4.640;2022-12-17T15:30:48;-1.60;99.90
20698;DHT22;10508;50.956;4.640;2022-12-17T15:33:14;-1.50;99.90
20698;DHT22;10508;50.956;4.640;2022-12-17T15:35:41;-1.50;99.90
20698;DHT22;10508;50.956;4.640;2022-12-17T15:38:07;-1.40;99.90
20698;DHT22;10508;50.956;4.640;2022-12-17T15:40:35;-1.40;99.90
20698;DHT22;10508;50.956;4.640;2022-12-17T15:43:01;-1.40;99.90
20698;DHT22;10508;50.956;4.640;2022-12-17T15:45:43;-1.40;99.90
20698;DHT22;10508;50.956;4.640;2022-12-17T15:48:10;-1.40;99.90
20698;DHT22;10508;50.956;4.640;2022-12-17T15:50:36;-1.40;99.90
20698;DHT22;10508;50.956;4.640;2022-12-17T15:53:02;-1.40;99.90
20698;DHT22;10508;50.956;4.640;2022-12-17T15:55:28;-1.30;99.90
20698;DHT22;10508;50.956;4.640;2022-12-17T15:57:54;-1.40;99.90
20698;DHT22;10508;50.956;4.640;2022-12-17T16:00:20;-1.30;99.90
20698;DHT22;10508;50.956;4.640;2022-12-17T16:02:47;-1.40;99.90
20698;DHT22;10508;50.956;4.640;2022-12-17T16:05:13;-1.40;99.90
20698;DHT22;10508;50.956;4.640;2022-12-17T16:07:38;-1.40;99.90
20698;DHT22;10508;50.956;4.640;2022-12-17T16:10:05;-1.40;99.90
20698;DHT22;10508;50.956;4.640;2022-12-17T16:12:31;-1.40;99.90
20698;DHT22;10508;50.956;4.640;2022-12-17T16:14:57;-1.50;99.90
20698;DHT22;10508;50.956;4.640;2022-12-17T16:17:23;-1.50;99.90
20698;DHT22;10508;50.956;4.640;2022-12-17T16:19:48;-1.40;99.90
20698;DHT22;10508;50.956;4.640;2022-12-17T16:22:14;-1.40;99.90
20698;DHT22;10508;50.956;4.640;2022-12-17T16:24:39;-1.50;99.90
20698;DHT22;10508;50.956;4.640;2022-12-17T16:27:24;-1.50;99.90
20698;DHT22;10508;50.956;4.640;2022-12-17T16:29:50;-1.50;99.90
20698;DHT22;10508;50.956;4.640;2022-12-17T16:32:15;-1.50;99.90
20698;DHT22;10508;50.956;4.640;2022-12-17T16:34:42;-1.50;99.90
20698;DHT22;10508;50.956;4.640;2022-12-17T16:37:08;-1.50;99.90
20698;DHT22;10508;50.956;4.640;2022-12-17T16:39:34;-1.50;99.90
20698;DHT22;10508;50.956;4.640;2022-12-17T16:41:59;-1.50;99.90
20698;DHT22;10508;50.956;4.640;2022-12-17T16:44:25;-1.60;99.90
20698;DHT22;10508;50.956;4.640;2022-12-17T16:47:10;-1.60;99.90
20698;DHT22;10508;50.956;4.640;2022-12-17T16:49:35;-1.60;99.90
20698;DHT22;10508;50.956;4.640;2022-12-17T16:52:01;-1.60;99.90
20698;DHT22;10508;50.956;4.640;2022-12-17T16:54:30;-1.60;99.90
20698;DHT22;10508;50.956;4.640;2022-12-17T16:56:56;-1.60;99.90
20698;DHT22;10508;50.956;4.640;2022-12-17T16:59:22;-1.60;99.90
20698;DHT22;10508;50.956;4.640;2022-12-17T17:01:49;-1.70;99.90
20698;DHT22;10508;50.956;4.640;2022-12-17T17:04:16;-1.70;99.90
20698;DHT22;10508;50.956;4.640;2022-12-17T17:09:18;-1.70;99.90
20698;DHT22;10508;50.956;4.640;2022-12-17T17:11:45;-1.60;99.90
20698;DHT22;10508;50.956;4.640;2022-12-17T17:14:10;-1.60;99.90
20698;DHT22;10508;50.956;4.640;2022-12-17T17:16:37;-1.70;99.90
20698;DHT22;10508;50.956;4.640;2022-12-17T17:19:04;-1.70;99.90
20698;DHT22;10508;50.956;4.640;2022-12-17T17:23:58;-1.90;99.90
20698;DHT22;10508;50.956;4.640;2022-12-17T17:26:26;-1.80;99.90
20698;DHT22;10508;50.956;4.640;2022-12-17T17:28:52;-1.80;99.90
20698;DHT22;10508;50.956;4.640;2022-12-17T17:31:18;-1.90;99.90
20698;DHT22;10508;50.956;4.640;2022-12-17T17:33:45;-1.90;99.90
20698;DHT22;10508;50.956;4.640;2022-12-17T17:36:24;-1.80;99.90
20698;DHT22;10508;50.956;4.640;2022-12-17T17:38:51;-1.90;99.90
20698;DHT22;10508;50.956;4.640;2022-12-17T17:41:19;-1.90;99.90
20698;DHT22;10508;50.956;4.640;2022-12-17T17:43:45;-1.90;99.90
20698;DHT22;10508;50.956;4.640;2022-12-17T17:46:12;-1.90;99.90
20698;DHT22;10508;50.956;4.640;2022-12-17T17:48:38;-1.90;99.90
20698;DHT22;10508;50.956;4.640;2022-12-17T17:51:17;-2.00;99.90
20698;DHT22;10508;50.956;4.640;2022-12-17T17:53:44;-2.00;99.90
20698;DHT22;10508;50.956;4.640;2022-12-17T17:56:12;-2.00;99.90
20698;DHT22;10508;50.956;4.640;2022-12-17T17:58:45;-1.90;99.90
20698;DHT22;10508;50.956;4.640;2022-12-17T18:01:14;-1.90;99.90
20698;DHT22;10508;50.956;4.640;2022-12-17T18:03:41;-1.80;99.90
20698;DHT22;10508;50.956;4.640;2022-12-17T18:06:08;-2.00;99.90
20698;DHT22;10508;50.956;4.640;2022-12-17T18:08:35;-1.90;99.90
20698;DHT22;10508;50.956;4.640;2022-12-17T18:11:03;-2.00;99.90
20698;DHT22;10508;50.956;4.640;2022-12-17T18:13:29;-2.00;99.90
20698;DHT22;10508;50.956;4.640;2022-12-17T18:16:14;-2.00;99.90
20698;DHT22;10508;50.956;4.640;2022-12-17T18:18:39;-2.00;99.90
20698;DHT22;10508;50.956;4.640;2022-12-17T18:21:07;-2.00;99.90
20698;DHT22;10508;50.956;4.640;2022-12-17T18:23:33;-2.10;99.90
20698;DHT22;10508;50.956;4.640;2022-12-17T18:26:20;-2.10;99.90
20698;DHT22;10508;50.956;4.640;2022-12-17T18:28:47;-2.10;99.90
20698;DHT22;10508;50.956;4.640;2022-12-17T18:31:17;-2.10;99.90
20698;DHT22;10508;50.956;4.640;2022-12-17T18:33:50;-2.10;99.90
20698;DHT22;10508;50.956;4.640;2022-12-17T18:36:24;-2.00;99.90
20698;DHT22;10508;50.956;4.640;2022-12-17T18:38:57;-2.10;99.90
20698;DHT22;10508;50.956;4.640;2022-12-17T18:41:24;-2.10;99.90